createdAt,value
2018-10-03T00:00:05.109Z,85.25
2018-10-03T00:01:05.050Z,84.95
2018-10-03T00:02:05.062Z,85.25
2018-10-03T00:03:13.220Z,84.95
2018-10-03T00:04:05.019Z,84.84
2018-10-03T00:05:05.167Z,84.84
2018-10-03T00:06:05.003Z,84.74
2018-10-03T00:07:05.060Z,84.95
2018-10-03T00:08:05.004Z,84.23
2018-10-03T00:09:04.958Z,84.84
2018-10-03T00:10:04.982Z,84.95
2018-10-03T00:11:05.073Z,84.95
2018-10-03T00:12:05.016Z,84.91
2018-10-03T00:13:04.916Z,84.50
2018-10-03T00:14:04.917Z,84.39
2018-10-03T00:15:04.889Z,84.60
2018-10-03T00:16:12.792Z,84.50
2018-10-03T00:17:04.876Z,84.60
2018-10-03T00:18:04.919Z,84.70
2018-10-03T00:19:04.917Z,83.88
2018-10-03T00:20:04.901Z,84.09
2018-10-03T00:21:04.891Z,83.88
2018-10-03T00:22:04.978Z,83.78
2018-10-03T00:23:04.834Z,83.98
2018-10-03T00:24:04.789Z,83.06
2018-10-03T00:25:04.809Z,83.23
2018-10-03T00:26:04.790Z,83.47
2018-10-03T00:27:04.877Z,83.17
2018-10-03T00:28:04.751Z,83.37
2018-10-03T00:29:04.735Z,82.96
2018-10-03T00:30:12.771Z,82.76
2018-10-03T00:31:04.748Z,82.41
2018-10-03T00:32:04.726Z,82.51
2018-10-03T00:33:04.834Z,82.82
2018-10-03T00:34:04.790Z,82.41
2018-10-03T00:35:04.730Z,82.71
2018-10-03T00:36:04.708Z,82.10
2018-10-03T00:37:04.715Z,81.79
2018-10-03T00:38:04.652Z,82.07
2018-10-03T00:39:04.624Z,81.49
2018-10-03T00:40:04.630Z,81.90
2018-10-03T00:41:04.601Z,81.79
2018-10-03T00:42:04.642Z,83.03
2018-10-03T00:43:04.591Z,82.37
2018-10-03T00:44:04.593Z,81.86
2018-10-03T00:45:04.557Z,82.51
2018-10-03T00:46:04.565Z,82.51
2018-10-03T00:47:04.535Z,82.07
2018-10-03T00:48:04.527Z,82.41
2018-10-03T00:49:04.540Z,82.41
2018-10-03T00:50:04.520Z,82.37
2018-10-03T00:51:04.489Z,83.03
2018-10-03T00:52:04.482Z,83.03
2018-10-03T00:53:04.573Z,82.62
2018-10-03T00:54:04.458Z,82.31
2018-10-03T00:55:04.448Z,82.48
2018-10-03T00:56:04.490Z,82.31
2018-10-03T00:57:04.423Z,82.41
2018-10-03T00:58:04.414Z,81.79
2018-10-03T00:59:04.465Z,82.31
2018-10-03T01:00:04.416Z,82.17
2018-10-03T01:01:04.379Z,81.86
2018-10-03T01:02:04.422Z,81.96
2018-10-03T01:03:04.364Z,81.76
2018-10-03T01:04:04.347Z,81.65
2018-10-03T01:05:04.337Z,81.76
2018-10-03T01:06:04.331Z,81.65
2018-10-03T01:07:04.386Z,81.76
2018-10-03T01:08:04.320Z,81.24
2018-10-03T01:09:04.439Z,81.15
2018-10-03T01:10:04.307Z,81.31
2018-10-03T01:12:18.429Z,81.21
2018-10-03T01:13:18.494Z,81.10
2018-10-03T01:14:18.376Z,81.21
2018-10-03T01:15:18.343Z,81.24
2018-10-03T01:16:18.357Z,81.04
2018-10-03T01:17:18.436Z,81.24
2018-10-03T01:18:18.369Z,80.69
2018-10-03T01:19:18.426Z,80.63
2018-10-03T01:20:18.367Z,81.10
2018-10-03T01:21:18.262Z,81.62
2018-10-03T01:22:18.250Z,81.65
2018-10-03T01:23:18.279Z,81.45
2018-10-03T01:24:18.258Z,81.86
2018-10-03T01:25:18.215Z,82.57
2018-10-03T01:26:18.216Z,82.07
2018-10-03T01:27:18.280Z,82.48
2018-10-03T01:28:18.187Z,82.27
2018-10-03T01:29:18.175Z,82.17
2018-10-03T01:30:18.183Z,82.68
2018-10-03T01:31:18.153Z,83.19
2018-10-03T01:32:26.141Z,83.09
2018-10-03T01:33:18.128Z,82.37
2018-10-03T01:34:18.165Z,83.13
2018-10-03T01:35:18.108Z,82.98
2018-10-03T01:36:18.136Z,82.78
2018-10-03T01:37:18.097Z,82.41
2018-10-03T01:38:18.102Z,82.62
2018-10-03T01:39:18.067Z,82.27
2018-10-03T01:40:18.057Z,82.41
2018-10-03T01:41:18.078Z,82.37
2018-10-03T01:42:18.189Z,82.68
2018-10-03T01:43:18.019Z,82.82
2018-10-03T01:44:18.020Z,82.71
2018-10-03T01:45:18.003Z,82.51
2018-10-03T01:46:18.033Z,82.57
2018-10-03T01:47:18.065Z,82.92
2018-10-03T01:48:17.984Z,82.57
2018-10-03T01:49:17.951Z,82.71
2018-10-03T01:50:25.931Z,82.71
2018-10-03T01:51:17.926Z,83.03
2018-10-03T01:52:17.968Z,83.13
2018-10-03T01:53:17.936Z,82.51
2018-10-03T01:54:18.004Z,83.03
2018-10-03T01:55:17.910Z,83.03
2018-10-03T01:56:17.951Z,82.82
2018-10-03T01:57:17.940Z,82.71
2018-10-03T01:58:17.868Z,82.82
2018-10-03T01:59:17.840Z,82.89
2018-10-03T02:00:17.834Z,83.44
2018-10-03T02:01:17.880Z,82.82
2018-10-03T02:02:17.806Z,82.71
2018-10-03T02:03:17.799Z,83.23
2018-10-03T02:04:17.806Z,83.19
2018-10-03T02:05:17.869Z,83.54
2018-10-03T02:06:17.814Z,83.39
2018-10-03T02:07:25.677Z,83.33
2018-10-03T02:08:17.744Z,83.44
2018-10-03T02:09:17.789Z,83.54
2018-10-03T02:10:17.777Z,83.50
2018-10-03T02:11:17.820Z,83.09
2018-10-03T02:12:17.701Z,82.89
2018-10-03T02:13:17.782Z,83.39
2018-10-03T02:14:17.673Z,82.98
2018-10-03T02:15:17.658Z,82.37
2018-10-03T02:16:17.696Z,82.68
2018-10-03T02:17:17.634Z,82.27
2018-10-03T02:18:17.624Z,82.57
2018-10-03T02:19:17.616Z,82.89
2018-10-03T02:20:17.605Z,82.43
2018-10-03T02:21:17.649Z,82.48
2018-10-03T02:22:17.581Z,82.27
2018-10-03T02:23:17.575Z,82.23
2018-10-03T02:24:17.561Z,82.57
2018-10-03T02:25:17.544Z,82.98
2018-10-03T02:26:25.264Z,82.37
2018-10-03T02:27:17.569Z,82.68
2018-10-03T02:28:17.515Z,82.48
2018-10-03T02:29:17.554Z,82.03
2018-10-03T02:30:17.540Z,82.27
2018-10-03T02:31:17.551Z,81.93
2018-10-03T02:32:17.468Z,81.51
2018-10-03T02:33:17.527Z,81.72
2018-10-03T02:34:17.451Z,81.51
2018-10-03T02:35:17.454Z,81.82
2018-10-03T02:36:17.438Z,81.41
2018-10-03T02:37:17.414Z,81.62
2018-10-03T02:38:17.440Z,81.62
2018-10-03T02:39:17.457Z,81.41
2018-10-03T02:40:17.385Z,81.72
2018-10-03T02:41:17.393Z,81.31
2018-10-03T02:42:17.358Z,81.10
2018-10-03T02:43:25.247Z,80.87
2018-10-03T02:44:17.352Z,80.69
2018-10-03T02:45:17.327Z,80.69
2018-10-03T02:46:17.349Z,80.80
2018-10-03T02:47:17.390Z,80.39
2018-10-03T02:48:17.408Z,81.01
2018-10-03T02:49:17.301Z,80.69
2018-10-03T02:50:17.268Z,80.69
2018-10-03T02:51:17.312Z,80.90
2018-10-03T02:52:17.247Z,80.69
2018-10-03T02:53:17.251Z,80.80
2018-10-03T02:54:17.292Z,81.10
2018-10-03T02:55:17.215Z,81.10
2018-10-03T02:56:17.205Z,81.31
2018-10-03T02:57:17.192Z,80.76
2018-10-03T02:58:17.182Z,81.17
2018-10-03T02:59:17.225Z,80.69
2018-10-03T03:00:17.280Z,80.66
2018-10-03T03:01:25.866Z,80.76
2018-10-03T03:02:17.166Z,80.66
2018-10-03T03:03:17.132Z,80.69
2018-10-03T03:04:17.237Z,80.97
2018-10-03T03:05:17.176Z,81.10
2018-10-03T03:06:17.199Z,81.01
2018-10-03T03:07:17.100Z,81.72
2018-10-03T03:08:17.068Z,81.82
2018-10-03T03:09:17.091Z,81.82
2018-10-03T03:10:17.183Z,81.72
2018-10-03T03:11:17.056Z,81.62
2018-10-03T03:12:17.024Z,81.93
2018-10-03T03:13:17.117Z,82.34
2018-10-03T03:14:17.007Z,82.43
2018-10-03T03:15:17.090Z,82.03
2018-10-03T03:16:17.006Z,82.29
2018-10-03T03:17:17.178Z,81.93
2018-10-03T03:18:16.963Z,82.03
2018-10-03T03:19:25.922Z,81.82
2018-10-03T03:20:16.978Z,82.43
2018-10-03T03:21:16.925Z,82.43
2018-10-03T03:22:17.135Z,82.13
2018-10-03T03:23:17.030Z,82.43
2018-10-03T03:24:16.910Z,82.64
2018-10-03T03:25:16.903Z,82.64
2018-10-03T03:26:16.929Z,83.05
2018-10-03T03:27:16.885Z,82.34
2018-10-03T03:28:16.927Z,82.43
2018-10-03T03:29:16.897Z,83.15
2018-10-03T03:30:16.832Z,82.43
2018-10-03T03:31:16.813Z,83.09
2018-10-03T03:32:16.804Z,82.78
2018-10-03T03:33:16.826Z,82.43
2018-10-03T03:34:16.952Z,82.64
2018-10-03T03:35:16.793Z,82.34
2018-10-03T03:36:16.761Z,82.54
2018-10-03T03:37:25.459Z,82.23
2018-10-03T03:38:16.797Z,82.43
2018-10-03T03:39:16.725Z,82.95
2018-10-03T03:40:16.768Z,82.34
2018-10-03T03:41:16.701Z,83.05
2018-10-03T03:42:16.712Z,82.84
2018-10-03T03:43:16.701Z,82.64
2018-10-03T03:44:16.684Z,82.43
2018-10-03T03:45:16.778Z,82.54
2018-10-03T03:46:16.791Z,82.84
2018-10-03T03:47:16.663Z,82.95
2018-10-03T03:48:16.624Z,83.05
2018-10-03T03:49:16.649Z,82.84
2018-10-03T03:50:16.603Z,82.64
2018-10-03T03:51:16.593Z,82.95
2018-10-03T03:52:16.616Z,83.05
2018-10-03T03:53:16.571Z,82.75
2018-10-03T03:54:16.556Z,82.54
2018-10-03T03:55:16.551Z,82.84
2018-10-03T03:56:16.623Z,82.95
2018-10-03T03:57:16.528Z,83.25
2018-10-03T03:58:16.531Z,82.64
2018-10-03T03:59:16.554Z,82.84
2018-10-03T04:00:16.495Z,83.46
2018-10-03T04:01:16.552Z,83.50
2018-10-03T04:02:16.473Z,83.25
2018-10-03T04:03:16.455Z,83.60
2018-10-03T04:04:16.460Z,84.22
2018-10-03T04:05:16.467Z,83.19
2018-10-03T04:06:16.427Z,83.76
2018-10-03T04:07:16.414Z,83.39
2018-10-03T04:08:16.489Z,83.70
2018-10-03T04:09:16.459Z,83.81
2018-10-03T04:10:16.406Z,84.22
2018-10-03T04:11:16.557Z,84.01
2018-10-03T04:12:16.357Z,83.50
2018-10-03T04:13:27.115Z,83.50
2018-10-03T04:14:16.431Z,84.11
2018-10-03T04:15:16.341Z,83.39
2018-10-03T04:16:16.342Z,83.70
2018-10-03T04:17:16.337Z,83.39
2018-10-03T04:18:16.314Z,83.81
2018-10-03T04:19:16.310Z,83.81
2018-10-03T04:20:16.271Z,83.29
2018-10-03T04:21:16.273Z,84.22
2018-10-03T04:22:16.455Z,83.91
2018-10-03T04:23:16.322Z,83.50
2018-10-03T04:24:16.305Z,83.39
2018-10-03T04:25:16.241Z,84.25
2018-10-03T04:26:16.203Z,83.95
2018-10-03T04:27:16.203Z,84.15
2018-10-03T04:28:16.177Z,84.25
2018-10-03T04:29:16.184Z,83.64
2018-10-03T04:30:16.189Z,84.56
2018-10-03T04:31:16.147Z,84.56
2018-10-03T04:32:16.133Z,84.46
2018-10-03T04:33:16.121Z,84.66
2018-10-03T04:34:16.209Z,84.56
2018-10-03T04:35:16.154Z,84.66
2018-10-03T04:36:16.088Z,84.66
2018-10-03T04:37:16.079Z,84.56
2018-10-03T04:38:16.100Z,84.56
2018-10-03T04:39:16.054Z,84.46
2018-10-03T04:40:16.172Z,84.46
2018-10-03T04:41:16.078Z,84.56
2018-10-03T04:42:16.035Z,84.19
2018-10-03T04:43:16.009Z,83.95
2018-10-03T04:44:15.997Z,84.50
2018-10-03T04:45:16.035Z,84.56
2018-10-03T04:46:15.993Z,84.56
2018-10-03T04:47:15.965Z,84.70
2018-10-03T04:48:15.972Z,84.56
2018-10-03T04:49:15.944Z,84.46
2018-10-03T04:50:15.931Z,84.56
2018-10-03T04:51:15.926Z,84.36
2018-10-03T04:52:15.933Z,84.46
2018-10-03T04:53:15.906Z,84.46
2018-10-03T04:54:15.957Z,84.50
2018-10-03T04:55:15.878Z,84.39
2018-10-03T04:56:15.865Z,84.29
2018-10-03T04:57:15.854Z,84.19
2018-10-03T04:58:15.860Z,84.19
2018-10-03T04:59:15.883Z,84.70
2018-10-03T05:00:15.820Z,84.50
2018-10-03T05:01:15.816Z,84.91
2018-10-03T05:02:15.814Z,84.91
2018-10-03T05:03:15.860Z,84.19
2018-10-03T05:04:15.846Z,84.29
2018-10-03T05:05:15.763Z,84.70
2018-10-03T05:06:15.784Z,84.80
2018-10-03T05:07:15.747Z,84.70
2018-10-03T05:08:15.733Z,85.01
2018-10-03T05:09:15.865Z,84.70
2018-10-03T05:10:15.711Z,85.11
2018-10-03T05:11:15.762Z,84.80
2018-10-03T05:12:15.700Z,84.84
2018-10-03T05:13:15.736Z,84.95
2018-10-03T05:14:15.699Z,85.36
2018-10-03T05:15:15.675Z,85.25
2018-10-03T05:16:15.664Z,85.05
2018-10-03T05:17:15.630Z,85.15
2018-10-03T05:18:15.621Z,85.46
2018-10-03T05:19:15.624Z,85.15
2018-10-03T05:20:15.602Z,85.56
2018-10-03T05:21:15.605Z,85.46
2018-10-03T05:22:15.574Z,85.77
2018-10-03T05:23:15.563Z,85.66
2018-10-03T05:24:15.636Z,85.22
2018-10-03T05:25:15.560Z,85.72
2018-10-03T05:26:15.531Z,85.77
2018-10-03T05:27:15.619Z,86.38
2018-10-03T05:28:15.509Z,86.18
2018-10-03T05:29:15.498Z,86.28
2018-10-03T05:30:15.504Z,86.48
2018-10-03T05:31:24.689Z,85.87
2018-10-03T05:32:15.507Z,86.28
2018-10-03T05:33:15.685Z,85.87
2018-10-03T05:34:15.522Z,85.77
2018-10-03T05:35:15.463Z,85.83
2018-10-03T05:36:15.421Z,86.14
2018-10-03T05:37:15.471Z,86.34
2018-10-03T05:38:15.398Z,86.34
2018-10-03T05:39:15.499Z,86.34
2018-10-03T05:40:15.375Z,86.24
2018-10-03T05:41:15.363Z,85.42
2018-10-03T05:42:15.351Z,86.24
2018-10-03T05:43:15.355Z,86.24
2018-10-03T05:44:15.427Z,85.93
2018-10-03T05:45:15.376Z,85.72
2018-10-03T05:46:15.328Z,86.04
2018-10-03T05:47:15.330Z,85.93
2018-10-03T05:48:15.354Z,85.93
2018-10-03T05:49:24.494Z,85.93
2018-10-03T05:50:15.314Z,86.14
2018-10-03T05:51:15.389Z,85.52
2018-10-03T05:52:15.279Z,86.14
2018-10-03T05:53:15.265Z,85.52
2018-10-03T05:54:15.218Z,85.83
2018-10-03T05:55:15.223Z,85.42
2018-10-03T05:56:15.220Z,85.52
2018-10-03T05:57:15.185Z,86.04
2018-10-03T05:58:15.211Z,85.93
2018-10-03T05:59:15.269Z,86.85
2018-10-03T06:00:15.157Z,86.34
2018-10-03T06:01:15.155Z,86.85
2018-10-03T06:02:15.149Z,86.44
2018-10-03T06:03:15.160Z,85.42
2018-10-03T06:04:15.105Z,85.72
2018-10-03T06:05:15.098Z,85.93
2018-10-03T06:06:15.143Z,85.63
2018-10-03T06:08:29.385Z,85.93
2018-10-03T06:09:29.320Z,86.04
2018-10-03T06:10:29.302Z,85.93
2018-10-03T06:11:29.282Z,85.52
2018-10-03T06:12:29.277Z,85.72
2018-10-03T06:13:29.373Z,85.28
2018-10-03T06:14:29.331Z,86.20
2018-10-03T06:15:29.356Z,86.10
2018-10-03T06:16:29.274Z,85.79
2018-10-03T06:18:43.619Z,85.22
2018-10-03T06:19:43.492Z,85.48
2018-10-03T06:20:43.477Z,84.77
2018-10-03T06:21:43.497Z,84.97
2018-10-03T06:22:43.474Z,84.56
2018-10-03T06:23:43.557Z,85.07
2018-10-03T06:24:43.485Z,84.97
2018-10-03T06:25:43.561Z,84.87
2018-10-03T06:26:43.399Z,84.87
2018-10-03T06:27:43.428Z,84.77
2018-10-03T06:28:43.376Z,84.97
2018-10-03T06:29:43.513Z,84.66
2018-10-03T06:30:43.359Z,85.03
2018-10-03T06:31:43.349Z,84.93
2018-10-03T06:32:43.333Z,84.15
2018-10-03T06:33:43.395Z,84.36
2018-10-03T06:34:43.340Z,84.72
2018-10-03T06:35:52.389Z,84.66
2018-10-03T06:36:43.310Z,84.25
2018-10-03T06:37:43.285Z,84.97
2018-10-03T06:38:43.287Z,84.87
2018-10-03T06:39:43.280Z,84.15
2018-10-03T06:40:43.347Z,84.77
2018-10-03T06:41:43.310Z,84.05
2018-10-03T06:42:43.227Z,84.87
2018-10-03T06:43:43.208Z,84.25
2018-10-03T06:44:43.236Z,84.87
2018-10-03T06:45:43.218Z,84.66
2018-10-03T06:46:43.178Z,85.28
2018-10-03T06:47:43.276Z,84.66
2018-10-03T06:48:43.158Z,84.77
2018-10-03T06:49:52.035Z,84.36
2018-10-03T06:50:43.319Z,84.77
2018-10-03T06:51:43.440Z,84.77
2018-10-03T06:52:43.200Z,84.77
2018-10-03T06:53:43.291Z,84.46
2018-10-03T06:54:43.113Z,84.87
2018-10-03T06:55:43.139Z,84.87
2018-10-03T06:56:43.079Z,84.87
2018-10-03T06:57:43.050Z,84.97
2018-10-03T06:58:43.088Z,84.05
2018-10-03T06:59:43.106Z,84.42
2018-10-03T07:00:43.045Z,84.83
2018-10-03T07:01:43.139Z,84.11
2018-10-03T07:02:43.012Z,84.31
2018-10-03T07:03:42.985Z,84.42
2018-10-03T07:04:43.048Z,84.22
2018-10-03T07:05:42.979Z,84.11
2018-10-03T07:06:42.966Z,84.58
2018-10-03T07:07:42.977Z,83.50
2018-10-03T07:08:53.229Z,83.50
2018-10-03T07:09:42.962Z,83.15
2018-10-03T07:10:43.338Z,83.29
2018-10-03T07:11:42.929Z,83.46
2018-10-03T07:12:43.384Z,83.15
2018-10-03T07:13:42.957Z,83.05
2018-10-03T07:14:42.909Z,82.54
2018-10-03T07:15:42.848Z,82.54
2018-10-03T07:16:42.880Z,83.05
2018-10-03T07:17:42.824Z,82.75
2018-10-03T07:18:42.813Z,82.40
2018-10-03T07:19:42.861Z,82.75
2018-10-03T07:20:42.809Z,82.95
2018-10-03T07:21:42.783Z,83.05
2018-10-03T07:22:42.791Z,82.40
2018-10-03T07:23:42.756Z,82.50
2018-10-03T07:24:42.922Z,82.40
2018-10-03T07:25:42.735Z,82.60
2018-10-03T07:26:42.725Z,82.50
2018-10-03T07:27:53.431Z,82.54
2018-10-03T07:28:42.727Z,81.99
2018-10-03T07:29:42.720Z,82.05
2018-10-03T07:30:42.749Z,82.40
2018-10-03T07:31:42.781Z,82.40
2018-10-03T07:32:43.033Z,81.48
2018-10-03T07:33:42.929Z,81.38
2018-10-03T07:34:42.637Z,81.38
2018-10-03T07:35:42.844Z,81.44
2018-10-03T07:36:42.613Z,81.34
2018-10-03T07:37:42.605Z,81.07
2018-10-03T07:38:42.723Z,80.93
2018-10-03T07:39:42.593Z,80.83
2018-10-03T07:40:42.585Z,80.83
2018-10-03T07:41:42.577Z,79.57
2018-10-03T07:42:42.540Z,79.87
2018-10-03T07:43:42.583Z,79.46
2018-10-03T07:44:42.519Z,79.70
2018-10-03T07:45:42.506Z,78.71
2018-10-03T07:46:42.507Z,78.09
2018-10-03T07:47:54.331Z,78.64
2018-10-03T07:48:42.568Z,79.02
2018-10-03T07:49:42.502Z,77.75
2018-10-03T07:50:42.495Z,77.00
2018-10-03T07:51:42.569Z,75.78
2018-10-03T07:52:42.614Z,74.52
2018-10-03T07:53:42.526Z,75.98
2018-10-03T07:54:42.454Z,75.44
2018-10-03T07:55:42.469Z,75.92
2018-10-03T07:56:42.388Z,74.32
2018-10-03T07:57:42.380Z,74.32
2018-10-03T07:58:42.428Z,74.62
2018-10-03T07:59:42.349Z,74.52
2018-10-03T08:00:42.426Z,74.52
2018-10-03T08:01:42.328Z,74.38
2018-10-03T08:02:42.341Z,74.08
2018-10-03T08:03:42.313Z,73.16
2018-10-03T08:04:42.311Z,73.77
2018-10-03T08:05:42.323Z,73.26
2018-10-03T08:06:42.387Z,73.57
2018-10-03T08:07:42.265Z,73.74
2018-10-03T08:08:42.250Z,73.02
2018-10-03T08:09:42.263Z,73.33
2018-10-03T08:10:42.244Z,72.92
2018-10-03T08:11:42.220Z,72.52
2018-10-03T08:12:42.204Z,73.43
2018-10-03T08:13:42.233Z,73.88
2018-10-03T08:14:42.185Z,73.57
2018-10-03T08:15:42.170Z,73.77
2018-10-03T08:16:42.209Z,73.36
2018-10-03T08:17:42.169Z,74.08
2018-10-03T08:18:42.135Z,73.10
2018-10-03T08:19:42.242Z,74.42
2018-10-03T08:20:42.143Z,74.52
2018-10-03T08:21:42.102Z,75.85
2018-10-03T08:22:42.094Z,73.10
2018-10-03T08:23:42.104Z,73.74
2018-10-03T08:24:50.421Z,74.21
2018-10-03T08:25:42.144Z,72.86
2018-10-03T08:26:42.194Z,71.94
2018-10-03T08:27:42.160Z,72.62
2018-10-03T08:28:42.278Z,71.23
2018-10-03T08:29:42.107Z,71.50
2018-10-03T08:30:42.007Z,70.89
2018-10-03T08:31:42.032Z,71.06
2018-10-03T08:32:42.198Z,70.24
2018-10-03T08:33:42.181Z,69.90
2018-10-03T08:34:41.958Z,70.14
2018-10-03T08:35:41.964Z,70.55
2018-10-03T08:36:41.936Z,70.86
2018-10-03T08:37:41.962Z,70.62
2018-10-03T08:38:42.034Z,69.70
2018-10-03T08:39:41.983Z,70.92
2018-10-03T08:40:41.997Z,70.68
2018-10-03T08:41:41.891Z,70.28
2018-10-03T08:42:41.923Z,70.79
2018-10-03T08:43:49.991Z,71.16
2018-10-03T08:44:42.350Z,69.57
2018-10-03T08:45:41.941Z,68.96
2018-10-03T08:46:41.863Z,68.38
2018-10-03T08:47:41.847Z,69.40
2018-10-03T08:48:42.097Z,70.41
2018-10-03T08:49:42.097Z,70.51
2018-10-03T08:50:41.894Z,69.60
2018-10-03T08:51:41.778Z,68.71
2018-10-03T08:52:41.800Z,69.12
2018-10-03T08:53:41.748Z,68.71
2018-10-03T08:54:41.758Z,69.02
2018-10-03T08:55:41.757Z,68.82
2018-10-03T08:56:41.717Z,68.62
2018-10-03T08:57:41.698Z,68.01
2018-10-03T08:58:41.710Z,68.71
2018-10-03T08:59:41.706Z,69.23
2018-10-03T09:00:41.720Z,69.36
2018-10-03T09:01:41.676Z,68.82
2018-10-03T09:02:41.687Z,68.95
2018-10-03T09:03:49.412Z,68.85
2018-10-03T09:04:41.675Z,69.15
2018-10-03T09:05:41.614Z,69.56
2018-10-03T09:06:41.649Z,69.73
2018-10-03T09:07:42.096Z,70.04
2018-10-03T09:08:41.663Z,69.53
2018-10-03T09:09:41.609Z,70.45
2018-10-03T09:10:41.565Z,69.12
2018-10-03T09:11:41.654Z,68.21
2018-10-03T09:12:41.534Z,68.27
2018-10-03T09:13:41.541Z,67.57
2018-10-03T09:14:41.560Z,69.80
2018-10-03T09:15:41.565Z,69.40
2018-10-03T09:16:41.544Z,68.99
2018-10-03T09:17:41.487Z,68.68
2018-10-03T09:18:41.469Z,68.99
2018-10-03T09:19:41.475Z,69.19
2018-10-03T09:20:41.444Z,68.27
2018-10-03T09:21:41.518Z,67.77
2018-10-03T09:22:41.419Z,67.43
2018-10-03T09:23:41.409Z,67.77
2018-10-03T09:24:41.427Z,67.97
2018-10-03T09:25:41.404Z,68.88
2018-10-03T09:26:41.375Z,69.06
2018-10-03T09:27:41.406Z,69.26
2018-10-03T09:28:41.353Z,68.44
2018-10-03T09:29:41.347Z,67.63
2018-10-03T09:30:41.367Z,68.96
2018-10-03T09:31:41.379Z,69.53
2018-10-03T09:32:41.330Z,68.62
2018-10-03T09:33:41.340Z,66.99
2018-10-03T09:34:41.288Z,67.71
2018-10-03T09:35:41.280Z,67.10
2018-10-03T09:36:41.387Z,64.86
2018-10-03T09:37:41.281Z,64.35
2018-10-03T09:38:41.269Z,64.55
2018-10-03T09:39:41.339Z,65.44
2018-10-03T09:40:41.249Z,67.16
2018-10-03T09:41:49.224Z,64.96
2018-10-03T09:42:41.232Z,66.28
2018-10-03T09:43:41.284Z,64.04
2018-10-03T09:44:41.323Z,64.86
2018-10-03T09:45:41.208Z,63.23
2018-10-03T09:46:41.193Z,63.13
2018-10-03T09:47:41.223Z,61.81
2018-10-03T09:48:41.134Z,61.91
2018-10-03T09:49:41.164Z,62.41
2018-10-03T09:50:41.107Z,65.03
2018-10-03T09:51:41.137Z,62.39
2018-10-03T09:52:41.091Z,62.59
2018-10-03T09:53:41.071Z,63.88
2018-10-03T09:54:41.091Z,64.79
2018-10-03T09:55:41.065Z,63.37
2018-10-03T09:56:41.036Z,61.01
2018-10-03T09:57:41.074Z,57.89
2018-10-03T09:58:41.016Z,59.72
2018-10-03T09:59:41.003Z,60.30
2018-10-03T10:00:51.480Z,58.37
2018-10-03T10:01:41.038Z,60.17
2018-10-03T10:02:40.974Z,59.66
2018-10-03T10:03:41.021Z,60.07
2018-10-03T10:04:41.024Z,60.44
2018-10-03T10:05:41.083Z,57.50
2018-10-03T10:06:40.980Z,57.50
2018-10-03T10:07:40.925Z,57.81
2018-10-03T10:08:40.939Z,59.12
2018-10-03T10:09:40.891Z,59.23
2018-10-03T10:10:40.879Z,59.91
2018-10-03T10:11:41.207Z,59.00
2018-10-03T10:12:40.874Z,59.30
2018-10-03T10:13:40.855Z,57.45
2018-10-03T10:14:40.861Z,59.88
2018-10-03T10:15:40.834Z,58.39
2018-10-03T10:16:40.863Z,59.30
2018-10-03T10:17:40.800Z,57.37
2018-10-03T10:18:40.808Z,58.26
2018-10-03T10:19:40.800Z,58.26
2018-10-03T10:20:48.900Z,59.30
2018-10-03T10:21:40.947Z,60.39
2018-10-03T10:22:40.764Z,60.93
2018-10-03T10:23:40.761Z,61.02
2018-10-03T10:24:40.823Z,59.91
2018-10-03T10:25:40.871Z,59.70
2018-10-03T10:26:40.733Z,59.99
2018-10-03T10:27:40.692Z,57.96
2018-10-03T10:28:40.712Z,57.42
2018-10-03T10:29:40.670Z,55.60
2018-10-03T10:30:40.670Z,53.67
2018-10-03T10:31:40.740Z,55.37
2018-10-03T10:32:40.683Z,54.97
2018-10-03T10:33:40.630Z,53.75
2018-10-03T10:34:40.610Z,54.16
2018-10-03T10:35:40.631Z,55.98
2018-10-03T10:36:40.729Z,55.80
2018-10-03T10:37:40.618Z,55.52
2018-10-03T10:38:40.567Z,56.67
2018-10-03T10:39:48.598Z,57.40
2018-10-03T10:40:40.778Z,58.72
2018-10-03T10:41:40.584Z,59.03
2018-10-03T10:42:40.597Z,58.14
2018-10-03T10:43:40.681Z,55.91
2018-10-03T10:44:40.567Z,55.58
2018-10-03T10:45:40.594Z,57.43
2018-10-03T10:46:40.553Z,55.78
2018-10-03T10:47:40.479Z,58.11
2018-10-03T10:48:40.471Z,54.97
2018-10-03T10:49:40.441Z,55.68
2018-10-03T10:50:40.461Z,56.87
2018-10-03T10:51:40.539Z,58.18
2018-10-03T10:52:40.451Z,55.96
2018-10-03T10:53:40.397Z,54.00
2018-10-03T10:54:40.424Z,53.70
2018-10-03T10:55:40.408Z,54.11
2018-10-03T10:56:40.360Z,52.79
2018-10-03T10:57:40.351Z,54.11
2018-10-03T10:58:40.367Z,56.71
2018-10-03T10:59:48.128Z,55.77
2018-10-03T11:00:40.410Z,53.85
2018-10-03T11:01:40.306Z,52.86
2018-10-03T11:02:40.360Z,55.57
2018-10-03T11:03:40.301Z,53.72
2018-10-03T11:04:40.321Z,53.09
2018-10-03T11:05:40.278Z,53.80
2018-10-03T11:06:40.372Z,52.06
2018-10-03T11:07:40.436Z,52.06
2018-10-03T11:08:40.424Z,51.83
2018-10-03T11:09:40.218Z,54.05
2018-10-03T11:10:40.234Z,51.30
2018-10-03T11:11:40.207Z,49.79
2018-10-03T11:12:40.183Z,48.37
2018-10-03T11:13:40.215Z,48.80
2018-10-03T11:14:40.232Z,51.81
2018-10-03T11:15:40.255Z,47.89
2018-10-03T11:16:40.135Z,49.79
2018-10-03T11:17:40.258Z,50.80
2018-10-03T11:18:49.306Z,49.08
2018-10-03T11:19:40.155Z,47.28
2018-10-03T11:20:40.112Z,48.80
2018-10-03T11:21:40.137Z,47.20
2018-10-03T11:22:40.115Z,50.72
2018-10-03T11:23:40.225Z,46.50
2018-10-03T11:24:40.243Z,47.53
2018-10-03T11:25:40.035Z,48.82
2018-10-03T11:26:40.072Z,51.93
2018-10-03T11:27:40.020Z,51.43
2018-10-03T11:28:39.999Z,49.10
2018-10-03T11:29:40.107Z,49.51
2018-10-03T11:30:39.976Z,47.81
2018-10-03T11:31:39.967Z,48.14
2018-10-03T11:32:40.035Z,49.15
2018-10-03T11:33:39.943Z,49.88
2018-10-03T11:34:39.931Z,51.20
2018-10-03T11:35:40.018Z,49.78
2018-10-03T11:36:39.922Z,48.57
2018-10-03T11:37:39.940Z,50.67
2018-10-03T11:38:48.134Z,51.78
2018-10-03T11:39:39.911Z,49.13
2018-10-03T11:40:40.145Z,50.04
2018-10-03T11:41:39.983Z,51.25
2018-10-03T11:42:39.951Z,52.44
2018-10-03T11:43:39.893Z,51.30
2018-10-03T11:44:39.823Z,48.72
2018-10-03T11:45:39.851Z,49.30
2018-10-03T11:46:39.799Z,47.91
2018-10-03T11:47:39.879Z,49.71
2018-10-03T11:48:39.779Z,47.87
2018-10-03T11:49:39.763Z,47.36
2018-10-03T11:50:39.850Z,48.85
2018-10-03T11:51:39.752Z,46.56
2018-10-03T11:52:39.730Z,47.74
2018-10-03T11:53:39.740Z,48.25
2018-10-03T11:54:39.726Z,48.25
2018-10-03T11:55:39.693Z,50.35
2018-10-03T11:56:39.733Z,46.94
2018-10-03T11:57:39.693Z,49.66
2018-10-03T11:58:39.662Z,50.09
2018-10-03T11:59:39.786Z,47.99
2018-10-03T12:00:39.651Z,47.81
2018-10-03T12:01:47.740Z,51.37
2018-10-03T12:02:39.730Z,50.06
2018-10-03T12:03:39.697Z,49.98
2018-10-03T12:04:39.674Z,49.88
2018-10-03T12:05:39.705Z,51.32
2018-10-03T12:06:39.656Z,53.65
2018-10-03T12:07:39.581Z,51.93
2018-10-03T12:08:39.547Z,52.23
2018-10-03T12:09:39.536Z,51.65
2018-10-03T12:10:39.614Z,51.86
2018-10-03T12:11:39.533Z,52.08
2018-10-03T12:12:39.503Z,53.09
2018-10-03T12:13:39.580Z,54.21
2018-10-03T12:14:39.481Z,52.08
2018-10-03T12:15:39.487Z,52.08
2018-10-03T12:16:39.460Z,53.91
2018-10-03T12:17:39.462Z,53.67
2018-10-03T12:18:39.434Z,54.08
2018-10-03T12:19:39.442Z,53.98
2018-10-03T12:20:47.566Z,53.45
2018-10-03T12:21:39.450Z,53.17
2018-10-03T12:22:39.393Z,51.35
2018-10-03T12:23:39.438Z,51.53
2018-10-03T12:24:39.443Z,51.20
2018-10-03T12:25:39.532Z,50.37
2018-10-03T12:26:39.413Z,51.35
2018-10-03T12:27:39.333Z,52.56
2018-10-03T12:28:39.325Z,50.92
2018-10-03T12:29:39.389Z,51.83
2018-10-03T12:30:39.350Z,51.61
2018-10-03T12:31:39.302Z,51.81
2018-10-03T12:32:39.278Z,49.99
2018-10-03T12:33:39.356Z,49.89
2018-10-03T12:34:39.255Z,50.87
2018-10-03T12:35:39.260Z,51.28
2018-10-03T12:36:39.246Z,50.67
2018-10-03T12:37:39.231Z,49.56
2018-10-03T12:38:39.243Z,49.58
2018-10-03T12:39:39.199Z,48.68
2018-10-03T12:40:39.255Z,47.69
2018-10-03T12:41:39.195Z,48.32
2018-10-03T12:42:39.259Z,47.20
2018-10-03T12:43:39.157Z,50.54
2018-10-03T12:44:39.141Z,50.62
2018-10-03T12:45:39.173Z,48.39
2018-10-03T12:46:39.224Z,47.59
2018-10-03T12:47:39.123Z,46.36
2018-10-03T12:48:47.131Z,46.56
2018-10-03T12:49:39.110Z,47.77
2018-10-03T12:50:39.115Z,46.58
2018-10-03T12:51:39.067Z,45.57
2018-10-03T12:52:39.099Z,46.88
2018-10-03T12:53:39.080Z,48.90
2018-10-03T12:54:39.280Z,48.39
2018-10-03T12:55:39.151Z,48.17